EGAE/LDY METAR and TAF weather

Enter ICAO airport designator
Station Type Date Time Source
EGAE METAR 2020/09/19 15:20 UTC NOAA

EGAE 191520Z 04012KT CAVOK 16/11 Q1023


Station Type Date Time Source
EGAE Decoded METAR 2020/09/19 15:20 UTC NOAA

Eglinton / Londonderr, United Kingdom (EGAE) 55-03N 007-09W
Sep 19, 2020 - 11:20 AM EDT / 2020.09.19 1520 UTC
Wind: from the NE (040 degrees) at 14 MPH (12 KT):0
Visibility: greater than 7 mile(s):0
Temperature: 60 F (16 C)
Dew Point: 51 F (11 C)
Relative Humidity: 72%
Pressure (altimeter): 30.21 in. Hg (1023 hPa)
ob: EGAE 191520Z 04012KT CAVOK 16/11 Q1023
cycle: 15

Station Type Date Time Source
EGAE TAF UTC NOAA

Error!

Example: see airport list